createdAt,value
2019-05-01T00:00:47.653Z,76.59
2019-05-01T00:01:47.564Z,76.31
2019-05-01T00:02:47.453Z,76.12
2019-05-01T00:03:47.353Z,76.31
2019-05-01T00:04:47.251Z,76.31
2019-05-01T00:05:47.260Z,76.31
2019-05-01T00:06:47.062Z,76.31
2019-05-01T00:07:46.949Z,76.31
2019-05-01T00:08:46.849Z,76.59
2019-05-01T00:09:46.755Z,75.55
2019-05-01T00:10:46.647Z,75.64
2019-05-01T00:11:46.564Z,76.68
2019-05-01T00:12:46.446Z,76.50
2019-05-01T00:13:46.346Z,76.31
2019-05-01T00:14:46.246Z,76.27
2019-05-01T00:15:46.146Z,76.12
2019-05-01T00:16:46.062Z,75.79
2019-05-01T00:17:45.947Z,75.55
2019-05-01T00:18:45.847Z,75.64
2019-05-01T00:19:45.849Z,76.12
2019-05-01T00:20:45.646Z,75.93
2019-05-01T00:21:45.560Z,75.07
2019-05-01T00:22:45.461Z,75.26
2019-05-01T00:23:45.343Z,75.45
2019-05-01T00:24:45.244Z,75.26
2019-05-01T00:25:45.145Z,75.17
2019-05-01T00:26:45.150Z,74.98
2019-05-01T00:27:44.958Z,76.12
2019-05-01T00:28:44.842Z,75.07
2019-05-01T00:29:44.743Z,75.45
2019-05-01T00:30:44.642Z,75.74
2019-05-01T00:31:44.541Z,75.74
2019-05-01T00:32:44.459Z,75.64
2019-05-01T00:33:44.447Z,75.36
2019-05-01T00:34:44.240Z,75.93
2019-05-01T00:35:44.142Z,75.26
2019-05-01T00:36:44.041Z,75.36
2019-05-01T00:37:43.956Z,74.98
2019-05-01T00:38:43.842Z,75.55
2019-05-01T00:39:43.738Z,75.45
2019-05-01T00:40:43.640Z,75.64
2019-05-01T00:41:43.539Z,75.17
2019-05-01T00:42:43.453Z,75.45
2019-05-01T00:43:43.340Z,75.36
2019-05-01T00:44:43.237Z,75.26
2019-05-01T00:45:43.141Z,75.26
2019-05-01T00:46:43.055Z,75.55
2019-05-01T00:47:43.067Z,75.55
2019-05-01T00:48:42.838Z,75.74
2019-05-01T00:49:42.739Z,76.12
2019-05-01T00:50:42.637Z,75.84
2019-05-01T00:51:42.536Z,75.84
2019-05-01T00:52:42.451Z,75.84
2019-05-01T00:53:42.336Z,75.84
2019-05-01T00:54:42.389Z,75.07
2019-05-01T00:55:42.137Z,75.45
2019-05-01T00:56:42.035Z,75.36
2019-05-01T00:57:41.948Z,74.60
2019-05-01T00:58:41.837Z,73.84
2019-05-01T00:59:41.733Z,73.84
2019-05-01T01:00:43.184Z,73.94
2019-05-01T01:01:41.662Z,73.84
2019-05-01T01:02:41.450Z,73.56
2019-05-01T01:03:41.332Z,73.56
2019-05-01T01:04:41.234Z,73.46
2019-05-01T01:05:41.135Z,73.56
2019-05-01T01:06:41.034Z,73.56
2019-05-01T01:07:40.934Z,73.75
2019-05-01T01:08:40.959Z,73.65
2019-05-01T01:09:40.732Z,73.56
2019-05-01T01:10:40.633Z,73.56
2019-05-01T01:11:40.531Z,73.56
2019-05-01T01:12:40.432Z,73.75
2019-05-01T01:13:40.349Z,73.37
2019-05-01T01:14:40.233Z,73.27
2019-05-01T01:15:40.233Z,73.56
2019-05-01T01:16:40.031Z,73.56
2019-05-01T01:17:39.934Z,73.37
2019-05-01T01:18:39.911Z,73.37
2019-05-01T01:19:39.729Z,73.37
2019-05-01T01:20:39.632Z,73.75
2019-05-01T01:21:39.530Z,73.18
2019-05-01T01:22:39.432Z,73.27
2019-05-01T01:23:39.351Z,73.37
2019-05-01T01:24:39.229Z,72.99
2019-05-01T01:25:39.130Z,73.65
2019-05-01T01:26:39.028Z,73.65
2019-05-01T01:27:38.928Z,73.37
2019-05-01T01:28:38.863Z,73.27
2019-05-01T01:29:38.732Z,73.27
2019-05-01T01:30:38.629Z,72.89
2019-05-01T01:31:38.530Z,70.81
2019-05-01T01:32:38.428Z,70.05
2019-05-01T01:33:38.343Z,68.63
2019-05-01T01:34:38.235Z,67.49
2019-05-01T01:35:38.126Z,66.64
2019-05-01T01:36:38.028Z,66.26
2019-05-01T01:37:37.928Z,65.41
2019-05-01T01:38:37.842Z,65.88
2019-05-01T01:39:37.726Z,66.16
2019-05-01T01:40:37.626Z,67.49
2019-05-01T01:41:37.528Z,67.18
2019-05-01T01:42:37.428Z,66.60
2019-05-01T01:43:37.343Z,66.41
2019-05-01T01:44:37.227Z,65.28
2019-05-01T01:45:37.126Z,63.57
2019-05-01T01:46:37.027Z,60.73
2019-05-01T01:47:36.925Z,57.98
2019-05-01T01:48:36.841Z,55.36
2019-05-01T01:49:36.724Z,55.17
2019-05-01T01:50:36.628Z,56.02
2019-05-01T01:51:36.523Z,57.06
2019-05-01T01:52:36.425Z,58.58
2019-05-01T01:53:36.328Z,59.44
2019-05-01T01:54:36.240Z,62.08
2019-05-01T01:55:36.124Z,62.72
2019-05-01T01:56:36.023Z,61.96
2019-05-01T01:57:36.160Z,61.49
2019-05-01T01:58:35.822Z,60.83
2019-05-01T01:59:35.735Z,59.97
2019-05-01T02:00:35.624Z,57.13
2019-05-01T02:01:35.520Z,55.80
2019-05-01T02:02:35.424Z,54.57
2019-05-01T02:03:35.320Z,53.34
2019-05-01T02:04:35.342Z,52.58
2019-05-01T02:05:35.122Z,51.37
2019-05-01T02:06:35.021Z,50.90
2019-05-01T02:07:34.918Z,50.62
2019-05-01T02:08:34.818Z,50.81
2019-05-01T02:09:34.734Z,51.85
2019-05-01T02:10:42.594Z,52.70
2019-05-01T02:11:34.516Z,53.08
2019-05-01T02:12:34.528Z,53.27
2019-05-01T02:13:34.320Z,53.65
2019-05-01T02:14:34.234Z,53.94
2019-05-01T02:15:34.117Z,54.22
2019-05-01T02:16:34.019Z,54.60
2019-05-01T02:17:33.917Z,54.98
2019-05-01T02:18:33.943Z,54.03
2019-05-01T02:19:33.729Z,54.13
2019-05-01T02:20:33.617Z,53.84
2019-05-01T02:21:33.514Z,54.03
2019-05-01T02:22:33.415Z,54.03
2019-05-01T02:23:33.314Z,53.84
2019-05-01T02:24:33.230Z,53.84
2019-05-01T02:25:33.114Z,54.50
2019-05-01T02:26:33.012Z,54.60
2019-05-01T02:27:32.926Z,55.07
2019-05-01T02:28:32.815Z,55.17
2019-05-01T02:29:32.727Z,54.60
2019-05-01T02:30:32.616Z,53.94
2019-05-01T02:31:32.511Z,52.70
2019-05-01T02:32:32.411Z,51.47
2019-05-01T02:33:32.311Z,51.09
2019-05-01T02:34:32.229Z,51.47
2019-05-01T02:35:32.113Z,52.23
2019-05-01T02:36:32.011Z,54.13
2019-05-01T02:37:31.912Z,56.12
2019-05-01T02:38:31.810Z,54.57
2019-05-01T02:39:31.724Z,54.00
2019-05-01T02:40:31.607Z,54.38
2019-05-01T02:41:31.521Z,54.76
2019-05-01T02:42:31.408Z,54.86
2019-05-01T02:43:31.307Z,55.24
2019-05-01T02:44:31.223Z,55.80
2019-05-01T02:45:31.107Z,55.05
2019-05-01T02:46:31.009Z,54.76
2019-05-01T02:47:30.904Z,54.67
2019-05-01T02:48:30.805Z,54.00
2019-05-01T02:49:30.725Z,53.15
2019-05-01T02:50:30.610Z,51.92
2019-05-01T02:51:30.504Z,51.26
2019-05-01T02:52:30.458Z,50.78
2019-05-01T02:53:30.304Z,48.13
2019-05-01T02:54:30.204Z,46.80
2019-05-01T02:55:30.119Z,44.34
2019-05-01T02:56:30.003Z,41.69
2019-05-01T02:57:29.903Z,39.98
2019-05-01T02:58:29.803Z,39.32
2019-05-01T02:59:29.704Z,37.82
2019-05-01T03:00:29.620Z,38.01
2019-05-01T03:01:45.628Z,38.29
2019-05-01T03:02:29.400Z,39.62
2019-05-01T03:03:29.303Z,40.76
2019-05-01T03:04:29.203Z,42.47
2019-05-01T03:05:29.115Z,44.17
2019-05-01T03:06:28.999Z,45.21
2019-05-01T03:07:29.003Z,45.31
2019-05-01T03:08:28.879Z,47.20
2019-05-01T03:09:28.699Z,49.95
2019-05-01T03:10:28.610Z,50.71
2019-05-01T03:11:28.501Z,50.71
2019-05-01T03:12:28.395Z,49.93
2019-05-01T03:13:28.295Z,49.08
2019-05-01T03:14:28.195Z,47.66
2019-05-01T03:15:28.108Z,46.61
2019-05-01T03:16:27.993Z,46.35
2019-05-01T03:17:27.892Z,45.88
2019-05-01T03:18:27.794Z,45.95
2019-05-01T03:19:27.692Z,46.04
2019-05-01T03:20:27.609Z,45.86
2019-05-01T03:21:27.599Z,45.76
2019-05-01T03:22:27.404Z,44.34
2019-05-01T03:23:27.291Z,43.39
2019-05-01T03:24:27.190Z,42.73
2019-05-01T03:25:27.105Z,41.05
2019-05-01T03:26:26.991Z,39.89
2019-05-01T03:27:26.891Z,38.58
2019-05-01T03:28:26.904Z,37.92
2019-05-01T03:29:26.690Z,37.73
2019-05-01T03:30:26.607Z,37.25
2019-05-01T03:31:26.492Z,37.35
2019-05-01T03:32:26.389Z,37.25
2019-05-01T03:33:26.288Z,37.25
2019-05-01T03:34:26.199Z,37.25
2019-05-01T03:35:26.205Z,37.16
2019-05-01T03:36:26.009Z,37.16
2019-05-01T03:37:25.887Z,37.16
2019-05-01T03:38:25.790Z,37.35
2019-05-01T03:39:25.687Z,36.68
2019-05-01T03:40:25.601Z,36.11
2019-05-01T03:41:25.488Z,35.07
2019-05-01T03:42:25.494Z,34.41
2019-05-01T03:43:25.290Z,34.22
2019-05-01T03:44:25.194Z,33.65
2019-05-01T03:45:25.101Z,33.17
2019-05-01T03:46:24.990Z,32.89
2019-05-01T03:47:24.889Z,33.00
2019-05-01T03:48:24.787Z,33.00
2019-05-01T03:49:24.790Z,32.81
2019-05-01T03:50:24.598Z,33.00
2019-05-01T03:51:24.484Z,34.12
2019-05-01T03:52:24.387Z,34.22
2019-05-01T03:53:24.288Z,34.69
2019-05-01T03:54:24.190Z,34.78
2019-05-01T03:55:24.112Z,36.02
2019-05-01T03:56:24.093Z,35.55
2019-05-01T03:57:23.889Z,34.23
2019-05-01T03:58:23.789Z,34.14
2019-05-01T03:59:23.685Z,33.19
2019-05-01T04:00:23.599Z,32.91
2019-05-01T04:01:23.485Z,32.34
2019-05-01T04:02:33.213Z,32.34
2019-05-01T04:03:23.394Z,31.58
2019-05-01T04:04:23.188Z,31.29
2019-05-01T04:05:23.101Z,31.10
2019-05-01T04:06:22.987Z,30.35
2019-05-01T04:07:22.890Z,30.06
2019-05-01T04:08:22.793Z,29.87
2019-05-01T04:09:22.702Z,29.40
2019-05-01T04:10:22.745Z,29.49
2019-05-01T04:11:22.492Z,29.32
2019-05-01T04:12:22.390Z,28.75
2019-05-01T04:13:22.292Z,28.66
2019-05-01T04:14:22.193Z,28.47
2019-05-01T04:15:22.093Z,28.27
2019-05-01T04:16:22.014Z,27.80
2019-05-01T04:17:22.003Z,27.61
2019-05-01T04:18:21.794Z,27.70
2019-05-01T04:19:21.694Z,27.80
2019-05-01T04:20:21.605Z,27.70
2019-05-01T04:21:21.512Z,27.99
2019-05-01T04:22:21.400Z,27.80
2019-05-01T04:23:21.300Z,28.27
2019-05-01T04:24:21.326Z,28.66
2019-05-01T04:25:21.107Z,28.85
2019-05-01T04:26:21.016Z,28.94
2019-05-01T04:27:20.902Z,28.94
2019-05-01T04:28:20.809Z,29.33
2019-05-01T04:29:20.705Z,29.52
2019-05-01T04:30:20.734Z,29.81
2019-05-01T04:31:20.542Z,30.47
2019-05-01T04:32:20.408Z,30.94
2019-05-01T04:33:20.314Z,31.04
2019-05-01T04:34:20.212Z,31.80
2019-05-01T04:35:20.114Z,32.09
2019-05-01T04:36:20.029Z,32.37
2019-05-01T04:37:19.917Z,32.94
2019-05-01T04:38:19.817Z,34.27
2019-05-01T04:39:19.716Z,34.36
2019-05-01T04:40:19.628Z,35.03
2019-05-01T04:41:19.535Z,36.74
2019-05-01T04:42:19.424Z,37.59
2019-05-01T04:43:19.325Z,37.88
2019-05-01T04:44:19.230Z,38.16
2019-05-01T04:45:19.134Z,37.88
2019-05-01T04:46:19.060Z,38.07
2019-05-01T04:47:18.947Z,38.54
2019-05-01T04:48:18.833Z,38.92
2019-05-01T04:49:18.742Z,39.01
2019-05-01T04:50:18.638Z,39.11
2019-05-01T04:51:18.554Z,39.23
2019-05-01T04:52:18.453Z,39.87
2019-05-01T04:53:18.343Z,40.17
2019-05-01T04:54:18.245Z,40.37
2019-05-01T04:55:18.150Z,40.75
2019-05-01T04:56:18.063Z,41.13
2019-05-01T04:57:18.009Z,41.60
2019-05-01T04:58:17.853Z,42.46
2019-05-01T04:59:17.752Z,42.83
2019-05-01T05:00:17.656Z,43.50
2019-05-01T05:01:17.571Z,43.69
2019-05-01T05:02:17.460Z,43.98
2019-05-01T05:03:17.361Z,44.35
2019-05-01T05:04:17.264Z,44.54
2019-05-01T05:05:17.166Z,44.45
2019-05-01T05:06:17.085Z,45.02
2019-05-01T05:07:16.971Z,45.12
2019-05-01T05:08:16.877Z,45.12
2019-05-01T05:09:16.778Z,45.61
2019-05-01T05:10:16.681Z,45.61
2019-05-01T05:11:16.595Z,45.71
2019-05-01T05:12:16.484Z,45.90
2019-05-01T05:13:16.387Z,46.19
2019-05-01T05:14:16.293Z,46.37
2019-05-01T05:15:16.191Z,47.33
2019-05-01T05:16:16.108Z,47.71
2019-05-01T05:17:16.000Z,48.08
2019-05-01T05:18:15.898Z,49.13
2019-05-01T05:19:15.805Z,49.51
2019-05-01T05:20:15.702Z,50.27
2019-05-01T05:21:15.608Z,50.84
2019-05-01T05:22:16.596Z,50.74
2019-05-01T05:23:15.415Z,51.79
2019-05-01T05:24:15.317Z,53.03
2019-05-01T05:25:15.220Z,54.17
2019-05-01T05:26:15.121Z,54.67
2019-05-01T05:27:15.038Z,55.15
2019-05-01T05:28:14.930Z,55.33
2019-05-01T05:29:14.831Z,56.19
2019-05-01T05:30:14.782Z,57.33
2019-05-01T05:31:14.643Z,57.81
2019-05-01T05:32:14.553Z,58.40
2019-05-01T05:33:18.485Z,58.79
2019-05-01T05:34:14.349Z,60.02
2019-05-01T05:35:14.252Z,61.26
2019-05-01T05:36:14.154Z,61.74
2019-05-01T05:37:14.071Z,62.21
2019-05-01T05:38:13.961Z,62.59
2019-05-01T05:39:13.865Z,63.26
2019-05-01T05:40:13.773Z,64.90
2019-05-01T05:41:13.673Z,64.90
2019-05-01T05:42:13.594Z,64.62
2019-05-01T05:43:13.479Z,65.10
2019-05-01T05:44:13.382Z,65.77
2019-05-01T05:45:13.286Z,64.62
2019-05-01T05:46:13.197Z,65.67
2019-05-01T05:47:13.114Z,65.95
2019-05-01T05:48:12.999Z,66.62
2019-05-01T05:49:12.905Z,66.62
2019-05-01T05:50:12.810Z,66.53
2019-05-01T05:51:12.713Z,66.62
2019-05-01T05:52:12.634Z,66.53
2019-05-01T05:53:12.522Z,66.62
2019-05-01T05:54:12.427Z,66.24
2019-05-01T05:55:12.329Z,66.53
2019-05-01T05:56:12.248Z,66.43
2019-05-01T05:57:12.154Z,66.05
2019-05-01T05:58:12.044Z,65.77
2019-05-01T05:59:11.951Z,66.24
2019-05-01T06:00:11.899Z,65.95
2019-05-01T06:01:11.757Z,65.86
2019-05-01T06:02:11.676Z,66.14
2019-05-01T06:03:11.568Z,66.05
2019-05-01T06:04:11.470Z,66.05
2019-05-01T06:05:11.374Z,66.05
2019-05-01T06:06:11.282Z,66.14
2019-05-01T06:07:11.184Z,66.05
2019-05-01T06:08:11.213Z,65.58
2019-05-01T06:09:13.928Z,65.95
2019-05-01T06:10:10.897Z,65.58
2019-05-01T06:11:10.801Z,65.67
2019-05-01T06:12:10.708Z,65.19
2019-05-01T06:13:10.623Z,66.05
2019-05-01T06:14:10.515Z,65.77
2019-05-01T06:15:10.522Z,65.86
2019-05-01T06:16:12.265Z,65.58
2019-05-01T06:17:10.228Z,65.77
2019-05-01T06:18:10.152Z,65.83
2019-05-01T06:19:14.614Z,66.33
2019-05-01T06:20:09.940Z,65.95
2019-05-01T06:21:12.735Z,65.86
2019-05-01T06:22:11.339Z,65.67
2019-05-01T06:23:09.668Z,65.58
2019-05-01T06:24:09.558Z,65.10
2019-05-01T06:25:21.382Z,66.14
2019-05-01T06:26:10.281Z,65.77
2019-05-01T06:27:13.578Z,66.05
2019-05-01T06:28:09.191Z,66.05
2019-05-01T06:29:09.182Z,66.72
2019-05-01T06:30:11.118Z,66.43
2019-05-01T06:31:08.888Z,66.85
2019-05-01T06:32:08.795Z,67.13
2019-05-01T06:33:09.513Z,67.13
2019-05-01T06:34:08.603Z,67.32
2019-05-01T06:35:08.509Z,67.93
2019-05-01T06:36:08.737Z,67.83
2019-05-01T06:37:08.317Z,68.40
2019-05-01T06:38:08.237Z,71.11
2019-05-01T06:39:11.880Z,70.92
2019-05-01T06:40:08.030Z,70.88
2019-05-01T06:41:07.936Z,71.07
2019-05-01T06:42:09.887Z,71.48
2019-05-01T06:43:07.870Z,71.87
2019-05-01T06:44:07.689Z,71.77
2019-05-01T06:45:07.557Z,71.87
2019-05-01T06:46:07.465Z,72.21
2019-05-01T06:47:07.366Z,72.21
2019-05-01T06:48:07.288Z,71.64
2019-05-01T06:49:07.218Z,71.93
2019-05-01T06:50:07.531Z,71.93
2019-05-01T06:51:06.989Z,72.41
2019-05-01T06:52:06.895Z,71.55
2019-05-01T06:53:06.817Z,72.06
2019-05-01T06:54:11.096Z,72.21
2019-05-01T06:55:06.618Z,73.01
2019-05-01T06:56:06.520Z,72.41
2019-05-01T06:57:06.423Z,72.44
2019-05-01T06:58:06.345Z,72.92
2019-05-01T06:59:06.234Z,72.63
2019-05-01T07:00:08.176Z,73.72
2019-05-01T07:01:06.048Z,72.92
2019-05-01T07:02:05.961Z,73.43
2019-05-01T07:03:10.058Z,73.24
2019-05-01T07:04:05.764Z,73.62
2019-05-01T07:05:09.105Z,74.01
2019-05-01T07:06:14.119Z,73.72
2019-05-01T07:07:06.640Z,73.62
2019-05-01T07:08:05.410Z,74.01
2019-05-01T07:09:07.016Z,74.32
2019-05-01T07:10:05.208Z,75.85
2019-05-01T07:11:05.112Z,75.70
2019-05-01T07:12:05.020Z,76.37
2019-05-01T07:13:06.480Z,78.66
2019-05-01T07:14:04.847Z,78.75
2019-05-01T07:15:04.739Z,80.57
2019-05-01T07:16:04.647Z,80.57
2019-05-01T07:17:04.553Z,80.51
2019-05-01T07:18:04.463Z,83.00
2019-05-01T07:19:06.052Z,82.56
2019-05-01T07:20:04.274Z,83.80
2019-05-01T07:21:04.199Z,83.46
2019-05-01T07:22:06.362Z,87.38
2019-05-01T07:23:03.998Z,86.66
2019-05-01T07:24:03.922Z,86.71
2019-05-01T07:25:05.140Z,87.23
2019-05-01T07:26:04.022Z,87.19
2019-05-01T07:27:03.641Z,87.00
2019-05-01T07:28:03.540Z,87.66
2019-05-01T07:29:06.126Z,88.72
2019-05-01T07:30:03.360Z,88.53
2019-05-01T07:31:05.136Z,87.24
2019-05-01T07:32:06.306Z,87.53
2019-05-01T07:33:03.087Z,89.25
2019-05-01T07:34:15.829Z,88.20
2019-05-01T07:35:03.954Z,87.76
2019-05-01T07:36:06.970Z,88.68
2019-05-01T07:37:02.729Z,89.34
2019-05-01T07:38:03.459Z,88.77
2019-05-01T07:39:02.557Z,88.77
2019-05-01T07:40:02.453Z,88.53
2019-05-01T07:41:03.306Z,88.87
2019-05-01T07:42:02.272Z,88.48
2019-05-01T07:43:02.176Z,88.68
2019-05-01T07:44:02.103Z,88.10
2019-05-01T07:45:03.846Z,89.30
2019-05-01T07:46:02.383Z,89.20
2019-05-01T07:47:01.927Z,89.16
2019-05-01T07:48:05.565Z,89.06
2019-05-01T07:49:01.648Z,89.16
2019-05-01T07:50:01.545Z,89.54
2019-05-01T07:51:01.833Z,89.30
2019-05-01T07:52:01.801Z,89.34
2019-05-01T07:53:01.268Z,89.15
2019-05-01T07:54:04.071Z,87.91
2019-05-01T07:55:01.090Z,89.96
2019-05-01T07:56:00.999Z,89.06
2019-05-01T07:57:03.162Z,89.44
2019-05-01T07:58:00.816Z,88.63
2019-05-01T07:59:00.726Z,89.44
2019-05-01T08:00:03.602Z,89.15
2019-05-01T08:01:00.545Z,89.53
2019-05-01T08:02:00.452Z,89.11
2019-05-01T08:03:02.675Z,89.87
2019-05-01T08:04:00.270Z,89.59
2019-05-01T08:05:00.194Z,89.59
2019-05-01T08:06:00.087Z,89.78
2019-05-01T08:06:59.995Z,89.73
2019-05-01T08:08:02.917Z,90.40
2019-05-01T08:08:59.815Z,90.02
2019-05-01T08:09:59.737Z,90.11
2019-05-01T08:10:59.891Z,89.64
2019-05-01T08:11:59.540Z,89.45
2019-05-01T08:13:00.366Z,90.35
2019-05-01T08:14:07.301Z,89.68
2019-05-01T08:14:59.280Z,89.59
2019-05-01T08:16:02.130Z,90.45
2019-05-01T08:16:59.081Z,89.39
2019-05-01T08:17:58.993Z,89.68
2019-05-01T08:19:03.580Z,90.30
2019-05-01T08:19:58.825Z,89.87
2019-05-01T08:20:58.718Z,89.96
2019-05-01T08:22:01.745Z,91.68
2019-05-01T08:22:58.533Z,91.05
2019-05-01T08:23:58.440Z,91.05
2019-05-01T08:24:59.907Z,91.25
2019-05-01T08:25:58.259Z,91.96
2019-05-01T08:26:58.168Z,92.30
2019-05-01T08:27:58.217Z,92.87
2019-05-01T08:28:57.989Z,91.67
2019-05-01T08:29:57.911Z,92.19
2019-05-01T08:30:57.815Z,91.66
2019-05-01T08:31:58.784Z,92.77
2019-05-01T08:32:57.628Z,90.85
2019-05-01T08:33:57.540Z,89.99
2019-05-01T08:35:00.582Z,89.99
2019-05-01T08:35:57.359Z,90.37
2019-05-01T08:36:57.270Z,89.22
2019-05-01T08:37:58.547Z,88.45
2019-05-01T08:38:57.111Z,88.84
2019-05-01T08:39:57.023Z,89.22
2019-05-01T08:40:56.917Z,90.18
2019-05-01T08:41:56.932Z,88.22
2019-05-01T08:42:56.743Z,89.37
2019-05-01T08:43:56.650Z,89.85
2019-05-01T08:44:59.953Z,89.94
2019-05-01T08:45:56.490Z,89.99
2019-05-01T08:46:56.388Z,88.93
2019-05-01T08:47:56.807Z,88.49
2019-05-01T08:48:56.317Z,90.03
2019-05-01T08:49:56.127Z,90.27
2019-05-01T08:50:59.214Z,88.40
2019-05-01T08:51:55.949Z,88.45
2019-05-01T08:52:55.861Z,87.39
2019-05-01T08:53:57.860Z,87.29
2019-05-01T08:54:55.689Z,88.40
2019-05-01T08:55:55.724Z,87.21
2019-05-01T08:56:57.970Z,88.21
2019-05-01T08:57:55.432Z,86.05
2019-05-01T08:58:55.339Z,85.03
2019-05-01T08:59:55.615Z,84.30
2019-05-01T09:00:55.184Z,82.09
2019-05-01T09:02:08.494Z,81.61
2019-05-01T09:03:07.354Z,83.25
2019-05-01T09:03:55.732Z,82.52
2019-05-01T09:05:01.932Z,82.81
2019-05-01T09:05:57.362Z,80.44
2019-05-01T09:06:54.652Z,80.46
2019-05-01T09:07:56.037Z,82.29
2019-05-01T09:08:54.525Z,81.76
2019-05-01T09:09:54.497Z,82.82
2019-05-01T09:10:54.647Z,82.43
2019-05-01T09:11:54.765Z,84.31
2019-05-01T09:12:54.136Z,84.81
2019-05-01T09:13:54.683Z,86.54
2019-05-01T09:14:53.968Z,88.65
2019-05-01T09:15:53.899Z,89.89
2019-05-01T09:16:53.901Z,89.99
2019-05-01T09:17:53.707Z,89.03
2019-05-01T09:18:53.624Z,88.88
2019-05-01T09:19:53.534Z,88.98
2019-05-01T09:20:53.451Z,88.84
2019-05-01T09:21:53.394Z,90.75
2019-05-01T09:22:53.277Z,89.70
2019-05-01T09:23:53.323Z,89.36
2019-05-01T09:24:53.104Z,87.92
2019-05-01T09:25:53.027Z,86.62
2019-05-01T09:26:52.946Z,83.93
2019-05-01T09:27:52.848Z,84.99
2019-05-01T09:28:52.760Z,84.85
2019-05-01T09:29:52.842Z,85.62
2019-05-01T09:30:52.693Z,86.34
2019-05-01T09:31:52.517Z,87.11
2019-05-01T09:32:54.617Z,87.25
2019-05-01T09:33:52.326Z,86.19
2019-05-01T09:34:52.243Z,86.29
2019-05-01T09:35:52.158Z,87.88
2019-05-01T09:36:52.084Z,89.03
2019-05-01T09:37:52.114Z,88.22
2019-05-01T09:38:51.899Z,89.75
2019-05-01T09:39:51.813Z,91.19
2019-05-01T09:40:51.731Z,91.34
2019-05-01T09:41:51.653Z,91.91
2019-05-01T09:42:54.585Z,91.96
2019-05-01T09:43:51.464Z,93.02
2019-05-01T09:44:51.480Z,93.78
2019-05-01T09:45:51.292Z,92.35
2019-05-01T09:46:51.216Z,92.82
2019-05-01T09:47:51.114Z,93.49
2019-05-01T09:48:51.026Z,92.92
2019-05-01T09:49:53.936Z,92.63
2019-05-01T09:50:50.975Z,91.96
2019-05-01T09:51:50.779Z,92.20
2019-05-01T09:52:50.677Z,92.10
2019-05-01T09:53:50.585Z,92.49
2019-05-01T09:54:50.501Z,92.10
2019-05-01T09:55:50.409Z,90.86
2019-05-01T09:56:50.336Z,91.19
2019-05-01T09:57:50.236Z,92.05
2019-05-01T09:58:50.146Z,91.24
2019-05-01T09:59:50.056Z,88.31
2019-05-01T10:00:52.732Z,86.57
2019-05-01T10:01:49.896Z,84.30
2019-05-01T10:02:49.792Z,82.92
2019-05-01T10:03:54.458Z,80.34
2019-05-01T10:04:49.618Z,77.04
2019-05-01T10:05:49.530Z,77.04
2019-05-01T10:06:52.274Z,77.42
2019-05-01T10:07:49.354Z,78.86
2019-05-01T10:08:49.266Z,79.21
2019-05-01T10:09:52.235Z,79.59
2019-05-01T10:10:49.092Z,80.16
2019-05-01T10:11:49.018Z,78.88
2019-05-01T10:12:48.916Z,77.44
2019-05-01T10:13:48.829Z,78.88
2019-05-01T10:14:48.738Z,79.36
2019-05-01T10:15:48.651Z,79.45
2019-05-01T10:16:48.576Z,79.16
2019-05-01T10:17:48.475Z,77.38
2019-05-01T10:18:48.388Z,77.48
2019-05-01T10:19:50.147Z,79.59
2019-05-01T10:20:48.212Z,77.51
2019-05-01T10:21:48.120Z,77.23
2019-05-01T10:22:48.045Z,76.25
2019-05-01T10:23:51.681Z,77.53
2019-05-01T10:24:47.855Z,74.60
2019-05-01T10:25:48.342Z,72.77
2019-05-01T10:26:47.678Z,71.71
2019-05-01T10:27:47.606Z,72.34
2019-05-01T10:28:49.968Z,72.58
2019-05-01T10:29:47.420Z,72.38
2019-05-01T10:30:47.324Z,73.02
2019-05-01T10:31:47.760Z,73.27
2019-05-01T10:32:47.167Z,73.21
2019-05-01T10:33:47.062Z,73.60
2019-05-01T10:34:46.982Z,73.98
2019-05-01T10:35:46.887Z,72.86
2019-05-01T10:36:49.743Z,72.86
2019-05-01T10:37:46.727Z,73.32
2019-05-01T10:38:46.908Z,71.11
2019-05-01T10:39:50.171Z,70.18
2019-05-01T10:40:46.452Z,70.95
2019-05-01T10:41:47.872Z,70.28
2019-05-01T10:42:46.292Z,73.16
2019-05-01T10:43:46.188Z,72.78
2019-05-01T10:44:46.102Z,72.26
2019-05-01T10:45:46.019Z,73.46
2019-05-01T10:46:45.930Z,74.57
2019-05-01T10:47:45.857Z,73.42
2019-05-01T10:48:45.759Z,75.15
2019-05-01T10:49:45.671Z,74.76
2019-05-01T10:50:45.586Z,73.16
2019-05-01T10:51:45.498Z,71.75
2019-05-01T10:52:45.418Z,72.00
2019-05-01T10:53:45.342Z,73.63
2019-05-01T10:54:46.582Z,74.65
2019-05-01T10:55:45.156Z,73.56
2019-05-01T10:56:45.075Z,75.77
2019-05-01T10:57:44.988Z,75.06
2019-05-01T10:58:44.915Z,74.71
2019-05-01T10:59:44.838Z,73.25
2019-05-01T11:00:44.728Z,73.19
2019-05-01T11:01:44.646Z,71.53
2019-05-01T11:02:44.551Z,71.11
2019-05-01T11:03:44.481Z,70.11
2019-05-01T11:04:44.391Z,71.81
2019-05-01T11:05:55.382Z,71.42
2019-05-01T11:06:44.210Z,71.17
2019-05-01T11:07:44.234Z,70.05
2019-05-01T11:08:44.056Z,69.85
2019-05-01T11:09:43.953Z,68.09
2019-05-01T11:10:43.867Z,68.29
2019-05-01T11:11:43.780Z,66.39
2019-05-01T11:12:43.696Z,67.65
2019-05-01T11:13:43.630Z,67.26
2019-05-01T11:14:43.636Z,69.41
2019-05-01T11:15:43.438Z,66.01
2019-05-01T11:16:43.354Z,65.24
2019-05-01T11:17:43.269Z,63.41
2019-05-01T11:18:43.195Z,62.77
2019-05-01T11:19:43.098Z,60.87
2019-05-01T11:20:43.013Z,61.83
2019-05-01T11:21:43.049Z,63.57
2019-05-01T11:22:42.841Z,62.22
2019-05-01T11:23:42.807Z,61.32
2019-05-01T11:24:42.673Z,59.20
2019-05-01T11:25:44.659Z,58.88
2019-05-01T11:26:42.502Z,58.62
2019-05-01T11:27:42.419Z,58.42
2019-05-01T11:28:42.470Z,57.05
2019-05-01T11:29:42.250Z,56.66
2019-05-01T11:30:42.166Z,55.44
2019-05-01T11:31:42.081Z,56.33
2019-05-01T11:32:41.997Z,56.04
2019-05-01T11:33:41.928Z,58.84
2019-05-01T11:34:41.829Z,57.65
2019-05-01T11:35:41.854Z,57.60
2019-05-01T11:36:41.662Z,59.23
2019-05-01T11:37:41.578Z,59.75
2019-05-01T11:38:41.509Z,59.27
2019-05-01T11:39:42.164Z,61.68
2019-05-01T11:40:41.324Z,63.73
2019-05-01T11:41:41.243Z,61.97
2019-05-01T11:42:41.262Z,60.62
2019-05-01T11:43:41.089Z,63.38
2019-05-01T11:44:40.987Z,63.25
2019-05-01T11:45:40.904Z,62.58
2019-05-01T11:46:40.819Z,61.91
2019-05-01T11:47:40.734Z,59.53
2019-05-01T11:48:40.665Z,61.16
2019-05-01T11:49:40.670Z,62.03
2019-05-01T11:50:40.490Z,61.43
2019-05-01T11:51:40.395Z,61.04
2019-05-01T11:52:40.311Z,59.95
2019-05-01T11:53:40.242Z,60.91
2019-05-01T11:54:40.141Z,60.21
2019-05-01T11:55:40.055Z,61.91
2019-05-01T11:56:40.075Z,63.06
2019-05-01T11:57:39.882Z,61.24
2019-05-01T11:58:39.798Z,64.22
2019-05-01T11:59:39.728Z,64.66
2019-05-01T12:00:39.626Z,62.36
2019-05-01T12:01:39.539Z,58.91
2019-05-01T12:02:39.451Z,58.52
2019-05-01T12:03:39.473Z,56.60
2019-05-01T12:04:39.294Z,57.68
2019-05-01T12:05:39.190Z,59.19
2019-05-01T12:06:39.105Z,59.89
2019-05-01T12:07:39.015Z,57.90
2019-05-01T12:08:38.931Z,55.43
2019-05-01T12:09:38.858Z,54.00
2019-05-01T12:10:38.864Z,55.16
2019-05-01T12:11:38.667Z,54.20
2019-05-01T12:12:38.586Z,55.07
2019-05-01T12:13:43.980Z,57.35
2019-05-01T12:14:38.422Z,58.18
2019-05-01T12:15:38.323Z,58.25
2019-05-01T12:16:38.236Z,57.39
2019-05-01T12:17:38.991Z,59.19
2019-05-01T12:18:38.064Z,59.57
2019-05-01T12:19:37.990Z,60.63
2019-05-01T12:20:37.888Z,61.36
2019-05-01T12:21:37.804Z,61.20
2019-05-01T12:22:37.724Z,62.13
2019-05-01T12:23:37.629Z,62.87
2019-05-01T12:24:37.557Z,63.64
2019-05-01T12:25:37.455Z,65.08
2019-05-01T12:26:37.368Z,64.28
2019-05-01T12:27:37.279Z,65.43
2019-05-01T12:28:37.200Z,65.23
2019-05-01T12:29:37.123Z,66.39
2019-05-01T12:30:37.020Z,65.91
2019-05-01T12:31:36.930Z,66.96
2019-05-01T12:32:36.844Z,67.25
2019-05-01T12:33:36.758Z,65.56
2019-05-01T12:34:36.683Z,65.65
2019-05-01T12:35:36.584Z,67.44
2019-05-01T12:36:36.841Z,67.16
2019-05-01T12:37:36.405Z,66.86
2019-05-01T12:38:36.316Z,67.83
2019-05-01T12:39:36.243Z,68.30
2019-05-01T12:40:36.139Z,68.69
2019-05-01T12:41:36.055Z,69.33
2019-05-01T12:42:35.962Z,69.04
2019-05-01T12:43:35.875Z,71.57
2019-05-01T12:44:35.803Z,71.57
2019-05-01T12:45:35.698Z,71.09
2019-05-01T12:46:35.611Z,69.65
2019-05-01T12:47:38.029Z,69.74
2019-05-01T12:48:35.432Z,70.99
2019-05-01T12:49:35.357Z,71.57
2019-05-01T12:50:35.254Z,71.66
2019-05-01T12:51:35.164Z,70.80